Time;durP1;ratioP1;P1;durP2;ratioP2;P2;SDS_P1;SDS_P2;PMS_P1;PMS_P2;Temp;Humidity;BMP_temperature;BMP_pressure;BME280_temperature;BME280_humidity;BME280_pressure;Samples;Min_cycle;Max_cycle;Signal;HPM_P1;HPM_P2
2021/03/03 00:00:13;;;;;;;51.15;22.58;;;;;;;4.91;58.92;102517.13;1731360;81;27626;-57
2021/03/03 00:02:42;;;;;;;49.27;22.82;;;;;;;4.91;59.15;102516.66;1753211;80;25766;-57
2021/03/03 00:05:13;;;;;;;45.60;21.87;;;;;;;4.95;59.17;102520.08;1749016;81;25751;-57
2021/03/03 00:07:41;;;;;;;49.77;21.55;;;;;;;4.94;59.12;102512.55;1751896;81;25746;-57
2021/03/03 00:10:11;;;;;;;51.98;23.47;;;;;;;4.96;59.34;102510.70;1724140;81;25625;-57
2021/03/03 00:12:41;;;;;;;45.38;22.80;;;;;;;4.97;60.15;102515.56;1723715;83;27540;-57
2021/03/03 00:15:10;;;;;;;47.80;22.65;;;;;;;4.95;59.78;102512.96;1725661;81;26200;-57
2021/03/03 00:17:39;;;;;;;45.75;21.87;;;;;;;4.93;59.44;102506.80;1747796;81;25661;-57
2021/03/03 00:20:10;;;;;;;46.48;22.42;;;;;;;4.94;59.68;102505.88;1753761;81;26406;-57
2021/03/03 00:22:38;;;;;;;53.45;22.58;;;;;;;4.95;59.71;102514.30;1742115;81;25472;-57
2021/03/03 00:25:08;;;;;;;48.98;22.22;;;;;;;4.95;60.17;102502.73;1725864;81;27541;-57
2021/03/03 00:27:38;;;;;;;49.27;23.77;;;;;;;4.88;60.00;102510.12;1750276;81;25772;-57
2021/03/03 00:30:10;;;;;;;45.85;20.20;;;;;;;4.84;59.77;102521.33;1750492;81;25624;-57
2021/03/03 00:32:38;;;;;;;56.45;25.25;;;;;;;4.80;60.40;102518.83;1743253;81;25715;-57
2021/03/03 00:35:09;;;;;;;52.95;24.75;;;;;;;4.76;59.97;102511.89;1723675;83;25738;-57
2021/03/03 00:37:37;;;;;;;55.12;24.00;;;;;;;4.71;60.00;102508.05;1747842;81;28439;-57
2021/03/03 00:40:08;;;;;;;50.55;22.48;;;;;;;4.67;60.41;102514.41;1751580;81;26388;-57
2021/03/03 00:42:37;;;;;;;48.70;22.70;;;;;;;4.64;60.59;102514.54;1744207;81;25787;-57
2021/03/03 00:45:08;;;;;;;51.30;22.20;;;;;;;4.55;60.85;102515.72;1722747;82;25769;-57
2021/03/03 00:47:37;;;;;;;51.48;24.30;;;;;;;4.49;60.79;102522.13;1732125;81;25777;-57
2021/03/03 00:50:10;;;;;;;62.60;25.80;;;;;;;4.40;61.12;102518.45;1745940;82;27537;-57
2021/03/03 00:52:39;;;;;;;58.85;25.10;;;;;;;4.35;62.16;102519.09;1728183;81;25780;-57
2021/03/03 00:55:11;;;;;;;53.98;23.38;;;;;;;4.27;62.95;102516.67;1745351;82;25719;-57
2021/03/03 00:57:40;;;;;;;55.25;23.85;;;;;;;4.21;62.14;102517.74;1738058;80;25711;-57
2021/03/03 01:00:13;;;;;;;54.30;23.30;;;;;;;4.22;61.82;102517.30;1716188;83;25863;-57
2021/03/03 01:02:45;;;;;;;45.10;21.33;;;;;;;4.26;62.55;102516.26;1718426;80;27540;-57
2021/03/03 01:05:15;;;;;;;49.30;24.20;;;;;;;4.27;62.64;102522.00;1716363;82;25768;-57
2021/03/03 01:07:48;;;;;;;44.98;22.77;;;;;;;4.28;62.81;102519.75;1718238;82;25476;-57
2021/03/03 01:10:17;;;;;;;61.85;24.20;;;;;;;4.31;62.77;102520.09;1718400;82;25774;-57
2021/03/03 01:12:49;;;;;;;43.63;20.23;;;;;;;4.32;62.67;102522.73;1715778;83;25651;-57
2021/03/03 01:15:19;;;;;;;55.80;23.65;;;;;;;4.33;63.15;102526.25;1716250;82;28414;-57
2021/03/03 01:17:48;;;;;;;50.73;23.67;;;;;;;4.30;63.43;102519.24;1743275;82;25786;-57
2021/03/03 01:20:17;;;;;;;53.17;25.62;;;;;;;4.25;63.55;102519.88;1733421;82;26396;-57
2021/03/03 01:22:45;;;;;;;51.68;23.35;;;;;;;4.22;63.93;102523.48;1716310;83;25620;-57
2021/03/03 01:25:14;;;;;;;57.00;26.02;;;;;;;4.18;63.95;102524.53;1737432;82;25754;-57
2021/03/03 01:27:42;;;;;;;50.50;22.95;;;;;;;4.16;63.83;102522.38;1746250;82;27611;-57
2021/03/03 01:30:13;;;;;;;52.75;24.47;;;;;;;4.11;64.13;102520.78;1719457;82;25781;-57
2021/03/03 01:32:41;;;;;;;55.65;24.52;;;;;;;4.06;63.96;102513.83;1703395;82;25623;-57
2021/03/03 01:35:12;;;;;;;57.23;24.82;;;;;;;4.03;63.92;102516.58;1745515;80;25653;-57
2021/03/03 01:37:40;;;;;;;52.20;22.75;;;;;;;4.01;64.25;102511.77;1746064;82;25625;-58
2021/03/03 01:40:10;;;;;;;52.27;24.05;;;;;;;4.01;63.71;102517.09;1717390;82;27608;-57
2021/03/03 01:42:38;;;;;;;51.68;22.80;;;;;;;4.01;63.44;102516.23;1716312;83;25738;-57
2021/03/03 01:45:08;;;;;;;56.48;22.75;;;;;;;4.00;62.90;102515.34;1718338;82;25584;-57
2021/03/03 01:47:38;;;;;;;51.63;22.60;;;;;;;3.97;64.12;102515.47;1718792;82;26531;-57
2021/03/03 01:50:10;;;;;;;48.70;22.27;;;;;;;3.97;63.40;102526.55;1718543;82;25733;-57
2021/03/03 01:52:41;;;;;;;54.00;23.27;;;;;;;3.96;62.89;102524.38;1719609;82;27542;-57
2021/03/03 01:55:10;;;;;;;53.00;23.18;;;;;;;3.96;62.71;102522.15;1745499;82;25735;-57
2021/03/03 01:57:39;;;;;;;51.10;23.38;;;;;;;3.95;63.18;102525.28;1717346;82;25661;-57
2021/03/03 02:00:09;;;;;;;55.33;21.60;;;;;;;3.99;63.15;102533.56;1743913;82;25735;-57
2021/03/03 02:02:41;;;;;;;51.05;22.52;;;;;;;4.03;63.11;102533.89;1726624;82;25739;-57
2021/03/03 02:05:12;;;;;;;46.60;22.48;;;;;;;4.03;63.26;102538.36;1716380;83;27541;-57
2021/03/03 02:08:11;;;;;;;46.05;20.65;;;;;;;4.06;63.43;102537.80;1716946;82;25768;-57
2021/03/03 02:11:18;;;;;;;55.15;23.73;;;;;;;4.16;63.55;102537.02;1717081;82;25738;-57
2021/03/03 02:14:03;;;;;;;54.23;23.22;;;;;;;4.17;63.52;102538.77;1716314;83;25639;-57
2021/03/03 02:16:33;;;;;;;51.68;23.20;;;;;;;4.19;63.34;102536.05;1716436;83;25775;-57
2021/03/03 02:19:04;;;;;;;48.70;23.85;;;;;;;4.18;63.55;102535.19;1729611;82;28438;-57
2021/03/03 02:21:45;;;;;;;53.60;23.20;;;;;;;4.18;63.23;102532.52;1745986;82;26186;-57
2021/03/03 02:24:26;;;;;;;52.43;23.85;;;;;;;4.22;63.23;102539.95;1744594;82;25783;-57
2021/03/03 02:26:56;;;;;;;51.23;23.57;;;;;;;4.25;62.89;102549.63;1746101;82;25734;-57
2021/03/03 02:29:29;;;;;;;47.83;21.23;;;;;;;4.30;62.68;102551.69;1744083;82;25521;-57
2021/03/03 02:31:59;;;;;;;51.02;25.23;;;;;;;4.33;62.38;102552.90;1746289;82;27644;-57
2021/03/03 02:34:30;;;;;;;53.55;24.57;;;;;;;4.34;62.32;102553.31;1723765;82;26100;-57
2021/03/03 02:36:59;;;;;;;49.33;24.47;;;;;;;4.30;62.34;102555.69;1716450;82;25520;-57
2021/03/03 02:39:29;;;;;;;48.98;23.12;;;;;;;4.28;62.54;102559.71;1716791;82;25776;-58
2021/03/03 02:41:59;;;;;;;59.13;26.25;;;;;;;4.22;62.93;102559.45;1716263;83;25531;-57
2021/03/03 02:44:28;;;;;;;55.38;24.63;;;;;;;4.10;63.48;102562.98;1716270;83;28227;-57
2021/03/03 02:46:56;;;;;;;52.58;23.80;;;;;;;4.04;63.49;102566.71;1716282;82;25523;-57
2021/03/03 02:49:25;;;;;;;53.23;24.72;;;;;;;4.02;63.67;102574.77;1717955;82;25776;-57
2021/03/03 02:51:53;;;;;;;54.60;24.47;;;;;;;4.02;64.01;102572.57;1716404;83;25722;-57
2021/03/03 02:54:22;;;;;;;50.85;23.92;;;;;;;4.01;64.66;102580.15;1716300;83;25673;-57
2021/03/03 02:56:50;;;;;;;58.58;26.15;;;;;;;3.99;64.53;102583.31;1722269;82;27539;-57
2021/03/03 02:59:34;;;;;;;55.17;24.72;;;;;;;3.98;64.62;102582.45;1736895;82;26086;-57
2021/03/03 03:02:07;;;;;;;53.63;24.65;;;;;;;4.01;64.59;102578.81;1716301;83;25767;-57
2021/03/03 03:04:42;;;;;;;56.15;23.95;;;;;;;4.05;64.61;102580.00;1716278;83;25689;-58
2021/03/03 03:07:20;;;;;;;57.93;24.60;;;;;;;4.16;64.44;102589.44;1716650;83;25724;-58
2021/03/03 03:09:50;;;;;;;54.83;23.87;;;;;;;4.22;64.34;102590.09;1717509;82;27543;-58
2021/03/03 03:12:21;;;;;;;53.75;23.73;;;;;;;4.34;64.31;102591.95;1716394;82;25785;-58
2021/03/03 03:14:52;;;;;;;51.10;24.70;;;;;;;4.48;64.29;102606.14;1716311;83;25715;-58
2021/03/03 03:17:22;;;;;;;50.48;23.22;;;;;;;4.59;64.12;102601.78;1717085;82;25754;-58
2021/03/03 03:19:55;;;;;;;48.78;23.38;;;;;;;4.71;64.34;102605.37;1744026;82;26088;-57
2021/03/03 03:22:27;;;;;;;57.60;24.77;;;;;;;4.73;63.85;102601.30;1746210;82;27526;-57
2021/03/03 03:24:58;;;;;;;49.65;24.15;;;;;;;4.74;63.60;102602.61;1745785;82;25708;-57
2021/03/03 03:27:28;;;;;;;57.03;25.12;;;;;;;4.75;63.33;102608.32;1742889;82;25808;-57
2021/03/03 03:29:59;;;;;;;50.80;25.32;;;;;;;4.73;63.35;102608.86;1742917;82;25664;-57
2021/03/03 03:32:28;;;;;;;59.95;27.13;;;;;;;4.73;63.07;102611.97;1718770;82;26067;-57
2021/03/03 03:34:57;;;;;;;52.60;24.60;;;;;;;4.78;63.01;102618.03;1710421;83;27544;-57
2021/03/03 03:37:26;;;;;;;52.17;24.52;;;;;;;4.76;63.01;102619.40;1716244;83;26088;-57
2021/03/03 03:39:55;;;;;;;54.08;24.32;;;;;;;4.76;62.85;102619.87;1745206;82;25660;-57
2021/03/03 03:42:25;;;;;;;57.53;24.90;;;;;;;4.75;62.72;102622.98;1745925;82;25680;-57
2021/03/03 03:44:55;;;;;;;53.28;26.05;;;;;;;4.75;62.67;102618.12;1717133;82;26041;-57
2021/03/03 03:47:24;;;;;;;52.58;24.40;;;;;;;4.73;62.76;102626.19;1709429;82;28514;-57
2021/03/03 03:49:53;;;;;;;53.68;24.92;;;;;;;4.70;62.75;102616.51;1708655;82;25678;-57
2021/03/03 03:52:22;;;;;;;52.85;25.05;;;;;;;4.66;62.81;102616.19;1702877;82;25745;-57
2021/03/03 03:54:53;;;;;;;51.02;25.82;;;;;;;4.64;62.98;102625.17;1729637;82;25886;-57
2021/03/03 03:57:23;;;;;;;52.15;24.52;;;;;;;4.59;63.25;102624.44;1731205;82;25741;-57
2021/03/03 03:59:51;;;;;;;58.58;26.35;;;;;;;4.52;63.13;102625.98;1730030;82;27539;-57
2021/03/03 04:02:19;;;;;;;53.13;24.75;;;;;;;4.48;63.42;102630.98;1717506;82;25627;-58
2021/03/03 04:04:50;;;;;;;49.40;24.85;;;;;;;4.43;63.23;102626.77;1728789;82;25746;-57
2021/03/03 04:07:19;;;;;;;53.80;24.80;;;;;;;4.39;63.59;102628.18;1731861;82;25720;-57
2021/03/03 04:09:46;;;;;;;52.83;24.37;;;;;;;4.38;63.90;102630.44;1730029;82;25831;-57
2021/03/03 04:12:14;;;;;;;60.60;26.55;;;;;;;4.35;63.91;102633.66;1732124;82;27536;-57
2021/03/03 04:14:43;;;;;;;45.92;21.45;;;;;;;4.31;63.84;102627.56;1712941;81;25804;-57
2021/03/03 04:17:13;;;;;;;48.38;22.55;;;;;;;4.28;64.17;102625.47;1763909;80;25669;-58
2021/03/03 04:19:41;;;;;;;49.27;23.75;;;;;;;4.22;64.26;102619.39;1702947;82;26422;-57
2021/03/03 04:22:09;;;;;;;54.30;24.70;;;;;;;4.17;64.04;102625.81;1704860;82;25465;-57
2021/03/03 04:24:37;;;;;;;52.00;23.52;;;;;;;4.17;64.39;102623.16;1725340;82;27608;-58
2021/03/03 04:27:05;;;;;;;56.02;25.77;;;;;;;4.14;64.50;102622.77;1715555;82;25505;-57
2021/03/03 04:29:33;;;;;;;56.13;25.82;;;;;;;4.10;64.33;102636.23;1702645;84;25664;-57
2021/03/03 04:32:01;;;;;;;61.02;28.30;;;;;;;4.04;64.87;102639.95;1718051;82;25684;-58
2021/03/03 04:34:30;;;;;;;57.40;27.13;;;;;;;3.96;64.70;102641.54;1721042;82;26738;-57
2021/03/03 04:36:59;;;;;;;65.85;30.27;;;;;;;3.91;65.00;102635.46;1707510;82;27541;-58
2021/03/03 04:39:27;;;;;;;61.15;26.87;;;;;;;3.88;64.45;102643.56;1705271;82;26081;-57
2021/03/03 04:41:55;;;;;;;65.85;28.83;;;;;;;3.86;64.40;102642.73;1711948;82;25722;-57
2021/03/03 04:44:23;;;;;;;60.12;27.27;;;;;;;3.84;64.27;102646.78;1714240;82;27859;-57
2021/03/03 04:46:51;;;;;;;56.15;28.15;;;;;;;3.82;64.09;102649.05;1705263;82;25682;-56
2021/03/03 04:49:20;;;;;;;55.63;25.77;;;;;;;3.78;64.01;102650.08;1724244;82;27591;-57
2021/03/03 04:51:48;;;;;;;59.10;26.93;;;;;;;3.72;64.02;102653.31;1731993;82;25587;-57
2021/03/03 04:54:17;;;;;;;56.85;25.43;;;;;;;3.65;64.33;102649.10;1713388;82;25793;-57
2021/03/03 04:56:48;;;;;;;59.58;26.05;;;;;;;3.58;64.07;102650.20;1717782;81;25548;-57
2021/03/03 04:59:16;;;;;;;61.33;27.27;;;;;;;3.53;64.36;102653.00;1732242;81;25764;-57
2021/03/03 05:01:45;;;;;;;56.15;26.45;;;;;;;3.45;64.24;102655.86;1719070;82;27546;-57
2021/03/03 05:04:13;;;;;;;57.15;25.77;;;;;;;3.38;64.27;102660.09;1708062;82;25708;-57
2021/03/03 05:06:43;;;;;;;56.37;25.82;;;;;;;3.32;64.57;102661.13;1719991;82;26288;-57
2021/03/03 05:09:11;;;;;;;58.92;25.82;;;;;;;3.25;65.07;102665.73;1707037;82;25874;-58
2021/03/03 05:11:39;;;;;;;60.52;24.67;;;;;;;3.21;66.24;102667.20;1716959;82;25768;-57
2021/03/03 05:14:07;;;;;;;53.00;24.23;;;;;;;3.12;66.29;102670.52;1715032;82;27608;-58
2021/03/03 05:16:36;;;;;;;58.95;25.27;;;;;;;2.90;66.63;102654.73;1709857;82;25751;-58
2021/03/03 05:19:04;;;;;;;67.75;25.80;;;;;;;3.03;66.50;102684.53;1702896;84;25617;-57
2021/03/03 05:21:36;;;;;;;51.55;23.77;;;;;;;3.02;66.98;102687.63;1702762;84;26420;-58
2021/03/03 05:24:06;;;;;;;56.40;25.80;;;;;;;3.02;67.61;102690.28;1702967;84;25678;-58
2021/03/03 05:26:35;;;;;;;53.23;26.05;;;;;;;3.04;67.28;102695.11;1702860;83;28531;-58
2021/03/03 05:29:03;;;;;;;53.60;25.80;;;;;;;3.03;68.34;102699.16;1702875;84;25690;-58
2021/03/03 05:31:31;;;;;;;65.25;28.25;;;;;;;3.00;68.15;102704.10;1702863;84;25742;-58
2021/03/03 05:34:01;;;;;;;55.03;23.62;;;;;;;3.00;67.98;102703.20;1702877;84;26470;-58
2021/03/03 05:36:30;;;;;;;67.53;28.42;;;;;;;3.00;67.55;102708.09;1702771;84;25673;-58
2021/03/03 05:39:07;;;;;;;63.17;29.27;;;;;;;3.01;67.74;102709.80;1702795;84;27549;-58
2021/03/03 05:41:35;;;;;;;62.38;28.47;;;;;;;3.03;67.53;102706.66;1706802;82;25661;-59
2021/03/03 05:44:07;;;;;;;64.00;28.65;;;;;;;3.05;67.21;102714.15;1718893;82;25835;-59
2021/03/03 05:46:39;;;;;;;64.17;27.70;;;;;;;3.13;67.23;102720.61;1714892;82;26527;-58
2021/03/03 05:49:12;;;;;;;62.65;29.57;;;;;;;3.24;67.06;102724.31;1702912;84;25764;-58
2021/03/03 05:51:43;;;;;;;61.70;25.95;;;;;;;3.36;66.75;102725.77;1702879;83;27247;-58
2021/03/03 05:54:11;;;;;;;61.45;26.70;;;;;;;3.43;67.10;102732.66;1702849;84;26098;-58
2021/03/03 05:56:40;;;;;;;62.90;26.70;;;;;;;3.45;67.01;102729.51;1702526;82;25723;-58
2021/03/03 05:59:12;;;;;;;68.33;26.90;;;;;;;3.46;66.90;102731.26;1667542;86;25754;-58
2021/03/03 06:01:41;;;;;;;68.57;25.65;;;;;;;3.50;66.76;102736.03;1665212;85;25688;-59
2021/03/03 06:04:12;;;;;;;52.08;25.35;;;;;;;3.57;66.96;102737.61;1655117;85;27563;-58
2021/03/03 06:06:42;;;;;;;54.03;23.62;;;;;;;3.58;66.95;102737.59;1677741;83;25743;-58
2021/03/03 06:09:11;;;;;;;57.95;25.62;;;;;;;3.60;66.83;102735.73;1692066;84;26253;-58
2021/03/03 06:11:39;;;;;;;53.75;24.87;;;;;;;3.59;66.76;102735.31;1692314;84;25601;-58
2021/03/03 06:14:09;;;;;;;53.87;24.65;;;;;;;3.60;66.56;102741.05;1691358;84;25754;-58
2021/03/03 06:16:39;;;;;;;55.78;25.35;;;;;;;3.66;66.85;102752.00;1692265;84;28951;-58
2021/03/03 06:19:08;;;;;;;55.55;25.20;;;;;;;3.68;66.91;102750.17;1692269;84;25712;-58
2021/03/03 06:21:36;;;;;;;56.88;25.40;;;;;;;3.71;66.66;102745.21;1692356;84;25672;-58
2021/03/03 06:24:09;;;;;;;51.58;25.50;;;;;;;3.74;66.79;102740.67;1692309;84;25666;-58
2021/03/03 06:26:59;;;;;;;46.85;21.95;;;;;;;3.72;66.56;102744.30;1692307;84;25676;-58
2021/03/03 06:29:29;;;;;;;56.10;26.68;;;;;;;3.73;66.68;102737.59;1692368;84;27560;-58
2021/03/03 06:32:03;;;;;;;59.60;28.35;;;;;;;3.79;66.73;102741.87;1692174;84;25511;-58
2021/03/03 06:34:33;;;;;;;51.83;24.25;;;;;;;3.81;66.39;102742.71;1725176;82;25638;-58
2021/03/03 06:37:05;;;;;;;60.52;27.22;;;;;;;3.84;66.21;102754.62;1727066;82;26434;-56
2021/03/03 06:39:37;;;;;;;60.92;26.65;;;;;;;3.86;66.18;102742.58;1719150;82;25776;-57
2021/03/03 06:42:08;;;;;;;57.67;26.95;;;;;;;3.87;66.41;102754.51;1732072;81;27600;-57
2021/03/03 06:44:52;;;;;;;53.58;25.32;;;;;;;3.91;66.08;102753.95;1727674;82;25699;-57
2021/03/03 06:47:21;;;;;;;61.63;28.27;;;;;;;3.96;65.97;102757.38;1721753;82;25722;-58
2021/03/03 06:49:52;;;;;;;50.00;25.82;;;;;;;3.99;65.88;102751.95;1720347;82;25612;-58
2021/03/03 06:52:41;;;;;;;56.92;26.93;;;;;;;4.04;65.90;102751.38;1716332;83;25690;-57
2021/03/03 06:55:13;;;;;;;53.38;25.30;;;;;;;4.09;65.77;102755.23;1716103;83;28510;-57
2021/03/03 06:57:41;;;;;;;59.85;25.62;;;;;;;4.12;65.94;102754.27;1741406;82;26135;-57
2021/03/03 07:00:11;;;;;;;51.28;23.50;;;;;;;4.14;66.20;102752.43;1744388;82;25628;-57
2021/03/03 07:02:39;;;;;;;52.70;22.65;;;;;;;4.17;65.96;102753.69;1727251;82;26443;-57
2021/03/03 07:05:11;;;;;;;50.03;22.70;;;;;;;4.24;65.81;102752.58;1678795;83;25776;-57
2021/03/03 07:07:40;;;;;;;45.67;21.00;;;;;;;4.30;65.67;102747.52;1692636;82;27614;-57
2021/03/03 07:10:10;;;;;;;58.95;24.67;;;;;;;4.40;66.06;102746.30;1716175;83;25653;-57
2021/03/03 07:12:49;;;;;;;46.77;22.15;;;;;;;4.49;65.69;102750.48;1724423;80;25719;-57
2021/03/03 07:15:17;;;;;;;50.78;22.82;;;;;;;4.61;65.46;102746.55;1721178;80;25875;-57
2021/03/03 07:17:46;;;;;;;38.42;20.62;;;;;;;4.72;65.01;102744.87;1716478;82;25657;-57
2021/03/03 07:20:17;;;;;;;45.25;20.68;;;;;;;4.83;64.79;102745.41;1716023;83;27614;-57
2021/03/03 07:22:52;;;;;;;48.85;20.12;;;;;;;4.89;64.32;102738.52;1716217;83;25727;-57
2021/03/03 07:25:22;;;;;;;49.45;22.85;;;;;;;4.91;63.87;102736.68;1716231;83;25689;-57
2021/03/03 07:27:51;;;;;;;39.55;19.40;;;;;;;4.92;63.61;102742.91;1716268;83;25739;-57
2021/03/03 07:30:25;;;;;;;43.65;19.17;;;;;;;4.97;63.49;102736.50;1716327;83;25656;-57
2021/03/03 07:32:53;;;;;;;35.05;17.90;;;;;;;5.00;63.08;102735.05;1718277;82;27490;-57
2021/03/03 07:35:23;;;;;;;37.78;18.57;;;;;;;5.06;62.95;102737.11;1714023;82;25737;-57
2021/03/03 07:37:57;;;;;;;42.58;19.80;;;;;;;5.12;62.88;102736.42;1716227;82;25815;-57
2021/03/03 07:40:30;;;;;;;45.75;22.75;;;;;;;5.20;62.73;102745.98;1716163;83;26411;-57
2021/03/03 07:43:01;;;;;;;35.78;19.05;;;;;;;5.26;62.60;102739.95;1716336;83;25699;-57
2021/03/03 07:45:40;;;;;;;37.48;20.05;;;;;;;5.37;62.52;102741.38;1740556;80;27542;-57
2021/03/03 07:48:11;;;;;;;41.85;19.37;;;;;;;5.51;62.19;102731.10;1748642;81;26170;-57
2021/03/03 07:50:43;;;;;;;36.13;18.73;;;;;;;5.63;61.61;102737.80;1746635;81;25753;-57
2021/03/03 07:53:14;;;;;;;38.73;17.52;;;;;;;5.69;61.42;102736.70;1749772;81;26525;-57
2021/03/03 07:55:43;;;;;;;36.88;18.90;;;;;;;5.78;61.08;102740.38;1728370;81;26078;-56
2021/03/03 07:58:12;;;;;;;38.83;19.92;;;;;;;5.89;60.63;102734.63;1729739;81;28623;-57
2021/03/03 08:00:43;;;;;;;43.13;19.55;;;;;;;6.02;60.43;102732.39;1723555;81;25770;-57
2021/03/03 08:03:13;;;;;;;36.93;18.70;;;;;;;6.11;60.56;102734.72;1725598;81;25680;-57
2021/03/03 08:05:43;;;;;;;33.67;16.85;;;;;;;6.23;60.32;102736.89;1729350;81;25730;-58
2021/03/03 08:08:25;;;;;;;38.60;19.15;;;;;;;6.28;59.89;102729.18;1723808;83;25748;-58
2021/03/03 08:11:02;;;;;;;36.28;18.57;;;;;;;6.34;59.71;102731.16;1723788;83;27552;-58
2021/03/03 08:13:34;;;;;;;36.38;18.70;;;;;;;6.46;59.64;102735.14;1688371;83;25504;-58
2021/03/03 08:16:30;;;;;;;34.25;18.02;;;;;;;6.57;59.46;102738.70;1723635;83;26518;-57
2021/03/03 08:18:59;;;;;;;34.60;15.95;;;;;;;6.76;58.98;102742.87;1665491;86;26411;-58
2021/03/03 08:21:31;;;;;;;45.15;18.75;;;;;;;6.93;58.63;102729.25;1665515;86;25717;-57
2021/03/03 08:24:04;;;;;;;49.25;18.05;;;;;;;7.06;58.73;102738.49;1665514;86;27621;-58
2021/03/03 08:26:35;;;;;;;38.13;18.50;;;;;;;7.21;57.71;102732.95;1662116;85;25752;-58
2021/03/03 08:29:20;;;;;;;41.00;19.92;;;;;;;7.36;57.22;102739.46;1652804;86;25793;-58
2021/03/03 08:31:48;;;;;;;35.13;18.73;;;;;;;7.46;57.39;102750.17;1665459;86;26423;-58
2021/03/03 08:34:18;;;;;;;34.40;18.05;;;;;;;7.56;57.22;102741.73;1665352;86;25507;-57
2021/03/03 08:36:49;;;;;;;36.20;17.95;;;;;;;7.70;57.19;102736.62;1665502;86;27623;-57
2021/03/03 08:39:24;;;;;;;36.25;17.35;;;;;;;7.87;55.36;102728.28;1665214;86;25704;-57
2021/03/03 08:41:53;;;;;;;39.00;17.90;;;;;;;7.94;54.96;102723.92;1655905;86;46995;-58
2021/03/03 08:44:29;;;;;;;38.20;18.40;;;;;;;8.05;54.30;102726.09;1648023;87;25750;-57
2021/03/03 08:46:57;;;;;;;27.67;15.43;;;;;;;8.03;54.62;102732.47;1648076;87;25470;-57
2021/03/03 08:49:28;;;;;;;36.33;17.52;;;;;;;8.07;53.26;102726.05;1648148;87;28443;-57
2021/03/03 08:52:11;;;;;;;33.88;15.70;;;;;;;8.16;53.89;102728.27;1648954;86;26202;-58
2021/03/03 08:54:45;;;;;;;38.28;16.67;;;;;;;8.24;51.91;102730.59;1670400;85;25838;-57
2021/03/03 08:57:37;;;;;;;41.23;18.05;;;;;;;8.37;52.14;102717.02;1664499;84;25834;-57
2021/03/03 09:00:07;;;;;;;38.75;18.62;;;;;;;8.61;51.77;102726.17;1633248;87;26157;-57
2021/03/03 09:02:40;;;;;;;53.20;18.87;;;;;;;8.89;52.24;102714.92;1659650;85;27552;-58
2021/03/03 09:05:11;;;;;;;;;;;;;;;9.27;50.93;102715.27;1651547;84;25820;-58
2021/03/03 09:07:44;;;;;;;32.30;17.75;;;;;;;9.39;49.83;102724.01;1625686;87;25718;-57
2021/03/03 09:10:18;;;;;;;38.80;19.50;;;;;;;9.50;49.01;102719.41;1633171;87;25734;-57
2021/03/03 09:12:47;;;;;;;40.33;19.67;;;;;;;9.52;49.16;102713.48;1633400;87;26155;-57
2021/03/03 09:15:17;;;;;;;36.08;17.07;;;;;;;9.78;49.54;102707.67;1633181;87;27556;-58
2021/03/03 09:17:46;;;;;;;38.50;18.52;;;;;;;10.11;48.52;102704.06;1637385;87;26147;-57
2021/03/03 09:20:21;;;;;;;47.83;18.85;;;;;;;10.38;48.10;102708.88;1678598;85;25668;-58
2021/03/03 09:22:49;;;;;;;36.80;17.32;;;;;;;10.75;48.63;102710.34;1672604;85;26480;-58
2021/03/03 09:25:24;;;;;;;39.50;19.65;;;;;;;11.09;47.10;102712.83;1662026;86;25756;-58
2021/03/03 09:27:56;;;;;;;51.45;20.52;;;;;;;11.27;45.65;102716.26;1666614;85;27543;-57
2021/03/03 09:30:27;;;;;;;33.45;18.98;;;;;;;11.21;45.50;102719.30;1681120;85;26192;-58
2021/03/03 09:32:56;;;;;;;35.28;19.37;;;;;;;11.19;45.47;102716.71;1679195;85;25737;-57
2021/03/03 09:35:29;;;;;;;37.40;18.75;;;;;;;11.74;43.74;102712.94;1681287;85;26433;-57
2021/03/03 09:37:58;;;;;;;35.90;19.63;;;;;;;12.72;44.06;102716.16;1647054;85;25770;-58
2021/03/03 09:40:30;;;;;;;34.00;16.65;;;;;;;13.67;42.68;102709.25;1653468;85;26899;-57
2021/03/03 09:43:02;;;;;;;35.70;18.02;;;;;;;14.36;40.67;102708.77;1651909;86;32515;-58
2021/03/03 09:45:31;;;;;;;42.80;18.45;;;;;;;14.99;39.88;102712.21;1651886;86;25693;-58
2021/03/03 09:47:59;;;;;;;35.08;18.10;;;;;;;15.75;38.18;102712.21;1652391;84;25751;-58
2021/03/03 09:50:30;;;;;;;31.65;17.70;;;;;;;15.29;37.85;102727.57;1642674;84;25820;-58
2021/03/03 09:53:00;;;;;;;42.40;20.77;;;;;;;14.47;38.19;102721.04;1655502;84;27590;-58
2021/03/03 09:55:35;;;;;;;33.95;17.65;;;;;;;14.61;39.23;102718.66;1658331;84;26093;-58
2021/03/03 09:58:04;;;;;;;34.23;19.37;;;;;;;14.89;38.69;102713.01;1623132;88;25706;-59
2021/03/03 10:00:40;;;;;;;44.60;18.30;;;;;;;14.40;37.39;102715.20;1602502;89;25667;-58
2021/03/03 10:03:14;;;;;;;29.07;17.73;;;;;;;13.55;38.84;102714.54;1629864;87;25743;-58
2021/03/03 10:05:43;;;;;;;35.50;19.15;;;;;;;13.14;40.25;102713.72;1674118;85;27603;-58
2021/03/03 10:08:14;;;;;;;28.35;16.70;;;;;;;13.75;40.05;102717.67;1674066;85;26111;-58
2021/03/03 10:10:48;;;;;;;31.73;18.00;;;;;;;13.86;39.88;102709.67;1674067;85;25730;-58
2021/03/03 10:13:25;;;;;;;41.68;19.52;;;;;;;13.40;39.38;102711.58;1674061;85;26514;-58
2021/03/03 10:15:57;;;;;;;34.35;18.55;;;;;;;13.71;37.63;102713.48;1674074;85;25681;-58
2021/03/03 10:18:25;;;;;;;35.70;19.80;;;;;;;14.05;37.00;102703.78;1675702;85;27549;-58
2021/03/03 10:20:56;;;;;;;38.55;20.40;;;;;;;14.60;37.21;102699.31;1677253;85;26172;-58
2021/03/03 10:23:30;;;;;;;37.48;18.87;;;;;;;15.24;36.32;102698.10;1677187;85;25726;-57
2021/03/03 10:26:08;;;;;;;29.77;18.98;;;;;;;16.27;34.50;102689.50;1677112;85;25725;-57
2021/03/03 10:28:37;;;;;;;34.92;20.43;;;;;;;16.62;34.55;102679.41;1672313;85;26030;-57
2021/03/03 10:31:11;;;;;;;36.60;19.05;;;;;;;17.21;31.93;102693.84;1622745;86;28532;-57
2021/03/03 10:33:41;;;;;;;33.15;21.02;;;;;;;17.31;31.12;102688.95;1623420;87;25763;-57
2021/03/03 10:36:21;;;;;;;34.60;19.15;;;;;;;17.25;31.80;102674.03;1607225;89;26206;-57
2021/03/03 10:38:55;;;;;;;35.25;19.80;;;;;;;16.70;32.81;102675.55;1607227;89;26001;-57
2021/03/03 10:41:33;;;;;;;34.03;21.17;;;;;;;17.09;33.32;102667.70;1607235;89;25695;-57
2021/03/03 10:44:05;;;;;;;38.40;22.62;;;;;;;17.84;33.43;102669.73;1622257;87;27547;-57
2021/03/03 10:46:44;;;;;;;37.97;21.63;;;;;;;17.90;31.10;102666.08;1633397;87;25855;-57
2021/03/03 10:49:21;;;;;;;36.65;21.05;;;;;;;17.92;30.93;102664.09;1633271;87;25535;-57
2021/03/03 10:51:49;;;;;;;34.58;19.32;;;;;;;17.99;29.96;102663.92;1633029;87;26426;-57
2021/03/03 10:54:32;;;;;;;31.07;19.52;;;;;;;18.11;29.36;102666.02;1604232;89;25477;-57
2021/03/03 10:57:10;;;;;;;32.67;19.75;;;;;;;17.98;29.36;102656.75;1628428;87;27609;-57
2021/03/03 10:59:39;;;;;;;36.60;19.23;;;;;;;16.84;30.52;102653.47;1626701;88;25641;-57
2021/03/03 11:02:08;;;;;;;43.58;22.27;;;;;;;16.01;32.58;102648.20;1629328;87;25639;-57
2021/03/03 11:04:44;;;;;;;38.98;21.48;;;;;;;15.81;33.08;102652.04;1633321;87;25766;-57
2021/03/03 11:07:14;;;;;;;;;;;;;;;16.32;33.22;102650.59;1635662;87;26168;-57
2021/03/03 11:09:42;;;;;;;36.08;20.90;;;;;;;16.96;32.91;102634.42;1616307;88;27551;-57
2021/03/03 11:12:10;;;;;;;35.33;21.55;;;;;;;17.85;31.83;102641.99;1628281;88;25533;-57
2021/03/03 11:14:40;;;;;;;33.40;20.02;;;;;;;18.56;31.19;102621.91;1631612;87;25698;-57
2021/03/03 11:17:11;;;;;;;33.13;20.55;;;;;;;19.10;30.20;102625.52;1631625;87;25757;-57
2021/03/03 11:19:41;;;;;;;34.13;19.90;;;;;;;19.40;30.46;102624.94;1644915;87;25709;-57
2021/03/03 11:22:09;;;;;;;32.98;21.57;;;;;;;19.69;29.01;102617.97;1644553;86;27538;-57
2021/03/03 11:24:37;;;;;;;32.95;20.65;;;;;;;20.02;29.37;102607.97;1644435;87;25732;-57
2021/03/03 11:27:07;;;;;;;38.95;22.90;;;;;;;20.54;28.24;102600.94;1644318;87;25799;-57
2021/03/03 11:29:34;;;;;;;42.60;23.57;;;;;;;20.28;27.08;102601.25;1644329;87;25625;-57
2021/03/03 11:32:08;;;;;;;35.05;22.67;;;;;;;20.05;26.75;102591.28;1641980;87;25613;-57
2021/03/03 11:34:36;;;;;;;40.75;22.85;;;;;;;19.60;27.67;102598.41;1616434;88;27626;-57